createdAt,value
2018-02-13T00:01:26.382Z,280.2
2018-02-13T00:11:28.993Z,286.1
2018-02-13T00:21:27.267Z,308.3
2018-02-13T00:31:27.119Z,302.6
2018-02-13T00:41:27.160Z,310.6
2018-02-13T00:51:27.595Z,297.9
2018-02-13T01:01:27.627Z,328.7
2018-02-13T01:11:27.196Z,340.5
2018-02-13T01:21:27.781Z,332.8
2018-02-13T01:31:26.291Z,310.9
2018-02-13T01:41:26.798Z,301.4
2018-02-13T01:51:28.132Z,292.6
2018-02-13T02:01:27.003Z,271.7
2018-02-13T02:11:27.242Z,299.0
2018-02-13T02:21:27.749Z,276.4
2018-02-13T02:31:26.268Z,289.5
2018-02-13T02:41:27.252Z,272.1
2018-02-13T02:51:27.190Z,293.8
2018-02-13T03:01:27.971Z,297.8
2018-02-13T03:11:27.369Z,279.2
2018-02-13T03:21:27.100Z,167.0
2018-02-13T03:31:28.177Z,206.3
2018-02-13T03:41:27.208Z,124.1
2018-02-13T03:51:27.177Z,90.1
2018-02-13T04:01:28.426Z,140.8
2018-02-13T04:11:27.532Z,195.1
2018-02-13T04:21:27.777Z,268.0
2018-02-13T04:31:27.657Z,278.3
2018-02-13T04:41:27.563Z,251.4
2018-02-13T04:51:27.537Z,269.4
2018-02-13T05:01:30.522Z,291.1
2018-02-13T05:11:30.953Z,268.8
2018-02-13T05:21:26.967Z,269.3
2018-02-13T05:31:28.043Z,277.1
2018-02-13T05:41:26.525Z,287.0
2018-02-13T05:51:27.189Z,280.7
2018-02-13T06:01:27.961Z,274.3
2018-02-13T06:11:26.956Z,278.4
2018-02-13T06:21:28.505Z,284.8
2018-02-13T06:31:27.470Z,226.0
2018-02-13T06:41:26.934Z,114.2
2018-02-13T06:51:27.111Z,107.0
2018-02-13T07:01:28.187Z,80.8
2018-02-13T07:11:26.744Z,78.9
2018-02-13T07:21:26.844Z,86.4
2018-02-13T07:31:27.839Z,77.2
2018-02-13T07:41:30.605Z,80.0
2018-02-13T07:51:26.392Z,84.2
2018-02-13T08:01:27.260Z,80.6
2018-02-13T08:11:26.980Z,69.4
2018-02-13T08:21:27.005Z,84.4
2018-02-13T08:31:26.573Z,85.9
2018-02-13T08:41:28.219Z,76.9
2018-02-13T08:51:27.571Z,70.8
2018-02-13T09:07:29.838Z,78.1
2018-02-13T09:11:27.313Z,76.7
2018-02-13T09:21:28.371Z,74.9
2018-02-13T09:31:28.550Z,78.8
2018-02-13T09:41:27.120Z,82.6
2018-02-13T09:51:26.803Z,83.7
2018-02-13T10:01:26.853Z,80.8
2018-02-13T10:11:26.933Z,92.2
2018-02-13T10:21:27.083Z,84.9
2018-02-13T10:31:27.264Z,85.0
2018-02-13T10:41:27.690Z,74.1
2018-02-13T10:51:26.238Z,71.6
2018-02-13T11:01:27.210Z,68.1
2018-02-13T11:11:27.627Z,68.6
2018-02-13T11:21:26.333Z,68.5
2018-02-13T11:31:26.977Z,73.4
2018-02-13T11:41:27.536Z,65.7
2018-02-13T11:51:27.649Z,70.0
2018-02-13T12:01:27.478Z,63.9
2018-02-13T12:11:27.599Z,70.2
2018-02-13T12:21:26.410Z,66.0
2018-02-13T12:31:31.098Z,76.5
2018-02-13T12:41:26.910Z,75.5
2018-02-13T12:51:26.736Z,85.0
2018-02-13T13:01:27.285Z,73.8
2018-02-13T13:11:30.058Z,79.4
2018-02-13T13:21:27.151Z,69.8
2018-02-13T13:31:26.801Z,85.4
2018-02-13T13:41:27.536Z,85.1
2018-02-13T13:51:28.975Z,71.6
2018-02-13T14:01:26.978Z,67.7
2018-02-13T14:11:29.283Z,69.1
2018-02-13T14:21:29.020Z,73.7
2018-02-13T14:31:26.497Z,69.0
2018-02-13T14:41:27.038Z,71.9
2018-02-13T14:51:27.731Z,76.1
2018-02-13T15:01:28.655Z,77.9
2018-02-13T15:11:27.221Z,72.5
2018-02-13T15:21:26.964Z,71.3
2018-02-13T15:31:28.241Z,76.2
2018-02-13T15:41:26.818Z,77.2
2018-02-13T15:51:27.118Z,69.8
2018-02-13T16:01:29.404Z,78.0
2018-02-13T16:11:27.579Z,80.8
2018-02-13T16:21:26.620Z,91.8
2018-02-13T16:31:27.708Z,102.8
2018-02-13T16:41:26.564Z,111.6
2018-02-13T16:51:28.678Z,93.2
2018-02-13T17:01:29.035Z,64.1
2018-02-13T17:11:26.627Z,82.2
2018-02-13T17:21:27.619Z,83.1
2018-02-13T17:31:29.909Z,84.2
2018-02-13T17:41:26.436Z,85.0
2018-02-13T17:51:27.042Z,90.2
2018-02-13T18:01:26.603Z,86.0
2018-02-13T18:11:27.128Z,93.4
2018-02-13T18:21:27.197Z,95.9
2018-02-13T18:31:27.681Z,82.3
2018-02-13T18:41:27.204Z,86.6
2018-02-13T18:51:27.871Z,90.4
2018-02-13T19:01:26.415Z,103.8
2018-02-13T19:11:28.603Z,121.2
2018-02-13T19:21:26.427Z,121.4
2018-02-13T19:31:27.856Z,119.0
2018-02-13T19:41:27.371Z,119.2
2018-02-13T19:51:27.294Z,105.8
2018-02-13T20:01:32.532Z,105.3
2018-02-13T20:11:29.279Z,88.9
2018-02-13T20:21:27.476Z,88.7
2018-02-13T20:31:29.831Z,77.7
2018-02-13T20:41:27.595Z,98.0
2018-02-13T20:51:27.372Z,114.1
2018-02-13T21:01:27.117Z,114.9
2018-02-13T21:11:27.906Z,99.5
2018-02-13T21:21:27.866Z,85.5
2018-02-13T21:31:30.839Z,85.9
2018-02-13T21:41:27.129Z,84.6
2018-02-13T21:51:27.312Z,84.5
2018-02-13T22:01:26.822Z,73.1
2018-02-13T22:11:26.669Z,94.0
2018-02-13T22:21:27.130Z,85.9
2018-02-13T22:31:29.092Z,87.9
2018-02-13T22:41:27.971Z,91.2
2018-02-13T22:51:26.502Z,82.4
2018-02-13T23:01:30.577Z,99.0
2018-02-13T23:11:29.512Z,85.2
2018-02-13T23:21:28.736Z,95.5
2018-02-13T23:31:27.461Z,94.5
2018-02-13T23:41:26.981Z,88.5
2018-02-13T23:51:28.448Z,93.3
